Latest Coastal Weather Observations for Cape Otway

IDT60701

Issued at 9:42 am EST Friday 26 August 2016 (issued every 10 minutes, with the page automatically refreshed every 10 minutes)

About coastal observations | Map of coastal stations | Coastal observations for TAS | Marine services | Other Formats
Station Details ID: 090015 Name: CAPE OTWAY LIGHTHOUSE Lat: -38.86 Lon: 143.51 Height: 82.0 m
Data from the previous 72 hours. | See also: Recent months at Cape Otway
Date/Time
EST
Temp
°C
Wind Pressure Rain since
9am
mm
Weather Cloud Vis
km
Sea
Height
m
Swell
Dir  Spd
kts
Gust
kts
hPa Trend Height
m
Period
s
Dir
26/09:30am 10.9 W 14 21 1021.0 - 0.0 - - - - - - -
26/09:00am 10.8 W 12 17 1021.0 - 0.4 - - - - - - -
26/08:30am 10.6 W 14 21 1020.7 - 0.4 - - - - - - -
26/08:00am 10.3 W 14 19 1020.6 - 0.4 - - - - - - -
26/07:30am 10.3 W 15 21 1020.3 - 0.4 - - - - - - -
26/07:00am 9.4 WSW 12 17 1020.1 - 0.4 - - - - - - -
26/06:30am 9.2 W 17 23 1020.1 - 0.4 - - - - - - -
26/06:17am 10.1 W 16 26 1019.8 - 0.4 - - - - - - -
26/06:00am 10.4 WSW 13 18 1019.8 - 0.4 - - - - - - -
26/05:30am 10.4 WSW 15 22 1019.5 - 0.4 - - - - - - -
26/05:00am 10.5 W 14 22 1019.3 - 0.4 - - - - - - -
26/04:30am 10.5 WSW 15 23 1019.1 - 0.4 - - - - - - -
26/04:00am 10.6 W 13 19 1018.8 - 0.4 - - - - - - -
26/03:30am 10.0 W 12 18 1018.8 - 0.4 - - - - - - -
26/03:00am 9.9 W 10 14 1019.1 - 0.4 - - - - - - -
26/02:30am 9.7 W 12 16 1019.1 - 0.4 - - - - - - -
26/02:00am 10.1 W 15 20 1019.2 - 0.4 - - - - - - -
26/01:30am 9.8 WSW 11 16 1019.4 - 0.4 - - - - - - -
26/01:00am 9.9 SW 14 19 1019.4 - 0.4 - - - - - - -
26/12:30am 10.2 WSW 12 18 1019.4 - 0.4 - - - - - - -
26/12:00am 10.1 WSW 12 18 1019.5 - 0.4 - - - - - - -
 
Date/Time
EST
Temp
°C
Wind Pressure Rain since
9am
mm
Weather Cloud Vis
km
Sea
Height
m
Swell
Dir  Spd
kts
Gust
kts
hPa Trend Height
m
Period
s
Dir
25/11:30pm 9.8 WSW 9 15 1019.4 - 0.4 - - - - - - -
25/11:00pm 9.2 SSW 9 12 1019.5 - 0.4 - - - - - - -
25/10:30pm 9.9 WSW 9 13 1019.6 - 0.4 - - - - - - -
25/10:00pm 9.6 SW 10 14 1019.6 - 0.4 - - - - - - -
25/09:30pm 8.9 W 10 15 1019.6 - 0.4 - - - - - - -
25/09:00pm 10.0 WSW 12 17 1019.5 - 0.0 - - - - - - -
25/08:30pm 10.7 SSW 10 13 1019.1 - 0.0 - - - - - - -
25/08:00pm 10.6 SSW 10 14 1019.0 - 0.0 - - - - - - -
25/07:30pm 10.6 SW 13 18 1018.8 - 0.0 - - - - - - -
25/07:00pm 10.6 SW 13 18 1018.5 - 0.0 - - - - - - -
25/06:30pm 10.6 SW 15 21 1018.1 - 0.0 - - - - - - -
25/06:00pm 10.8 SW 13 19 1017.8 - 0.0 - - - - - - -
25/05:30pm 10.6 SSW 12 17 1017.5 - 0.0 - - - - - - -
25/05:00pm 10.7 SSW 16 21 1017.1 - 0.0 - - - - - - -
25/04:30pm 12.1 SW 10 14 1016.9 - 0.0 - - - - - - -
25/04:00pm 11.1 SSW 12 20 1016.8 - 0.0 - - - - - - -
25/03:30pm 10.9 SSW 12 20 1016.7 - 0.0 - - - - - - -
25/03:00pm 10.6 SW 18 25 1016.9 - 0.0 - - - - - - -
25/02:30pm 11.9 SSW 12 17 1016.5 - 0.0 - - - - - - -
25/02:00pm 11.6 SSW 14 19 1016.3 - 0.0 - - - - - - -
25/01:30pm 11.7 SSW 13 19 1016.2 - 0.0 - - - - - - -
25/01:00pm 12.4 SW 10 13 1016.2 - 0.0 - - - - - - -
25/12:30pm 11.1 SSW 13 19 1016.2 - 0.0 - - - - - - -
25/12:00pm 11.0 SSW 13 17 1016.3 - 0.0 - - - - - - -
25/11:30am 11.6 W 8 10 1016.3 - 0.0 - - - - - - -
25/11:00am 10.4 WSW 7 12 1016.4 - 0.0 - - - - - - -
25/10:30am 10.5 SW 7 11 1016.1 - 0.0 - - - - - - -
25/10:00am 9.4 SSW 6 8 1015.9 - 0.0 - - - - - - -
25/09:30am 9.7 SSW 13 21 1015.3 - 0.0 - - - - - - -
25/09:00am 9.5 SW 15 21 1015.5 - 3.6 - - - - - - -
25/08:30am 10.7 SSW 13 17 1015.0 - 3.4 - - - - - - -
25/08:00am 9.8 SSW 13 19 1014.7 - 3.4 - - - - - - -
25/07:30am 8.5 W 7 10 1014.4 - 3.4 - - - - - - -
25/07:00am 9.7 SSW 15 22 1014.0 - 3.2 - - - - - - -
25/06:30am 9.5 SSW 13 17 1014.0 - 3.2 - - - - - - -
25/06:00am 9.3 SSW 14 19 1013.6 - 3.2 - - - - - - -
25/05:30am 8.9 SSW 15 22 1013.2 - 3.2 - - - - - - -
25/05:00am 8.5 WSW 10 16 1013.2 - 3.2 - - - - - - -
25/04:30am 8.6 SW 12 18 1013.1 - 3.2 - - - - - - -
25/04:04am 9.0 SSW 15 26 1012.8 - 2.4 - - - - - - -
25/04:00am 9.3 SSW 12 16 1012.8 - 2.4 - - - - - - -
25/03:30am 9.1 SW 16 23 1013.1 - 2.4 - - - - - - -
25/03:00am 8.8 SW 12 17 1013.2 - 2.4 - - - - - - -
25/02:30am 7.9 SW 16 24 1013.4 - 2.4 - - - - - - -
25/02:08am 9.3 SW 15 25 1012.9 - 1.4 - - - - - - -
25/02:00am 10.0 SW 12 16 1013.2 - 1.4 - - - - - - -
25/01:30am 9.2 SW 8 11 1013.4 - 1.4 - - - - - - -
25/01:00am 9.1 SSW 10 13 1013.5 - 1.4 - - - - - - -
25/12:30am 9.5 SSW 14 19 1013.6 - 1.4 - - - - - - -
25/12:00am 9.7 SW 13 17 1013.8 - 1.4 - - - - - - -
 
Date/Time
EST
Temp
°C
Wind Pressure Rain since
9am
mm
Weather Cloud Vis
km
Sea
Height
m
Swell
Dir  Spd
kts
Gust
kts
hPa Trend Height
m
Period
s
Dir
24/11:30pm 9.5 WSW 12 16 1013.9 - 1.4 - - - - - - -
24/11:00pm 9.5 SSW 12 18 1014.1 - 1.4 - - - - - - -
24/10:30pm 9.0 SSW 12 19 1014.3 - 1.4 - - - - - - -
24/10:00pm 9.4 SW 13 20 1014.4 - 1.4 - - - - - - -
24/09:30pm 9.4 SW 11 16 1014.6 - 1.4 - - - - - - -
24/09:00pm 9.2 SSW 13 19 1014.8 - 1.4 - - - - - - -
24/08:30pm 8.8 SSW 13 21 1014.9 - 1.4 - - - - - - -
24/08:00pm 9.5 WSW 9 13 1014.9 - 1.0 - - - - - - -
24/07:30pm 9.7 SW 12 17 1015.0 - 1.0 - - - - - - -
24/07:00pm 9.7 SW 11 16 1014.9 - 1.0 - - - - - - -
24/06:30pm 9.8 SW 10 16 1014.8 - 1.0 - - - - - - -
24/06:00pm 9.4 SW 10 14 1014.9 - 1.0 - - - - - - -
24/05:30pm 9.8 SW 14 17 1014.6 - 1.0 - - - - - - -
24/05:00pm 10.4 SSW 11 17 1014.5 - 1.0 - - - - - - -
24/04:30pm 10.6 SW 12 18 1014.5 - 1.0 - - - - - - -
24/04:00pm 10.8 SSW 11 15 1014.4 - 1.0 - - - - - - -
24/03:30pm 10.7 SSW 10 15 1014.5 - 1.0 - - - - - - -
24/03:00pm 10.7 SSW 10 15 1014.6 - 1.0 - - - - - - -
24/02:30pm 10.4 SSW 8 12 1014.5 - 1.0 - - - - - - -
24/02:00pm 10.1 SW 6 10 1014.8 - 1.0 - - - - - - -
24/01:30pm 10.0 SSW 6 9 1015.0 - 1.0 - - - - - - -
24/01:00pm 11.1 SSE 4 6 1015.2 - 1.0 - - - - - - -
24/12:30pm 11.5 SSE 5 7 1015.5 - 1.0 - - - - - - -
24/12:00pm 11.1 SE 5 8 1016.1 - 1.0 - - - - - - -
24/11:30am 9.9 S 5 9 1016.4 - 1.0 - - - - - - -
24/11:00am 9.5 SW 4 8 1016.4 - 1.0 - - - - - - -
24/10:30am 9.1 ESE 9 13 1016.6 - 1.0 - - - - - - -
24/10:00am 8.8 E 6 8 1016.8 - 0.4 - - - - - - -
24/09:30am 8.8 SSE 5 9 1017.2 - 0.2 - - - - - - -
24/09:00am 9.0 WSW 5 7 1017.3 - 0.2 - - - - - - -
24/08:30am 8.9 W 6 8 1017.1 - 0.2 - - - - - - -
24/08:00am 8.7 ESE 4 8 1017.2 - 0.0 - - - - - - -
24/07:30am 8.4 ESE 6 9 1017.1 - 0.0 - - - - - - -
24/07:00am 8.4 S 5 8 1016.9 - 0.0 - - - - - - -
24/06:30am 8.6 SSW 4 8 1016.8 - 0.0 - - - - - - -
24/06:00am 9.3 SW 5 8 1016.6 - 0.0 - - - - - - -
24/05:30am 9.0 W 4 7 1016.5 - 0.0 - - - - - - -
24/05:00am 9.2 WSW 4 6 1016.6 - 0.0 - - - - - - -
24/04:30am 7.9 NNW 7 9 1016.7 - 0.0 - - - - - - -
24/04:00am 7.9 NNW 5 7 1016.6 - 0.0 - - - - - - -
24/03:30am 8.0 N 5 6 1016.6 - 0.0 - - - - - - -
24/03:00am 8.0 N 5 7 1017.0 - 0.0 - - - - - - -
24/02:30am 8.2 NNW 5 6 1017.1 - 0.0 - - - - - - -
24/02:00am 8.4 N 7 10 1017.2 - 0.0 - - - - - - -
24/01:30am 9.0 NW 2 5 1017.5 - 0.0 - - - - - - -
24/01:00am 9.8 SW 6 9 1017.5 - 0.0 - - - - - - -
24/12:30am 9.8 ESE 6 9 1017.4 - 0.0 - - - - - - -
24/12:00am 8.7 NNW 3 5 1017.7 - 0.0 - - - - - - -
 
Date/Time
EST
Temp
°C
Wind Pressure Rain since
9am
mm
Weather Cloud Vis
km
Sea
Height
m
Swell
Dir  Spd
kts
Gust
kts
hPa Trend Height
m
Period
s
Dir
23/11:30pm 8.7 WSW 4 7 1017.8 - 0.0 - - - - - - -
23/11:00pm 8.5 N 3 5 1017.9 - 0.0 - - - - - - -
23/10:30pm 8.0 NNW 5 7 1018.0 - 0.0 - - - - - - -
23/10:00pm 7.4 N 7 9 1018.1 - 0.0 - - - - - - -
23/09:30pm 7.5 NNW 5 7 1018.1 - 0.0 - - - - - - -
23/09:00pm 7.7 S 3 5 1018.3 - 0.0 - - - - - - -
23/08:30pm 8.7 CALM 0 0 1018.2 - 0.0 - - - - - - -
23/08:00pm 9.7 ESE 3 5 1018.3 - 0.0 - - - - - - -
23/07:30pm 9.8 S 1 3 1018.4 - 0.0 - - - - - - -
23/07:00pm 10.2 SW 6 7 1018.3 - 0.0 - - - - - - -
23/06:30pm 10.1 SSW 4 7 1018.3 - 0.0 - - - - - - -
23/06:00pm 10.4 CALM 0 0 1018.2 - 0.0 - - - - - - -
23/05:30pm 10.3 SSW 6 9 1017.8 - 0.0 - - - - - - -
23/05:00pm 10.5 S 3 4 1017.8 - 0.0 - - - - - - -
23/04:30pm 10.9 WSW 5 7 1017.8 - 0.0 - - - - - - -
23/04:00pm 11.1 SW 6 8 1017.7 - 0.0 - - - - - - -
23/03:30pm 11.1 W 6 9 1017.7 - 0.0 - - - - - - -
23/03:00pm 11.5 W 7 10 1017.7 - 0.0 - - - - - - -
23/02:30pm 12.3 WSW 7 9 1017.4 - 0.0 - - - - - - -
23/02:00pm 11.8 WSW 7 10 1017.2 - 0.0 - - - - - - -
23/01:30pm 11.9 WSW 7 10 1017.2 - 0.0 - - - - - - -
23/01:00pm 11.6 WSW 6 9 1017.2 - 0.0 - - - - - - -
23/12:30pm 11.8 WSW 6 10 1017.4 - 0.0 - - - - - - -
23/12:00pm 11.5 WSW 6 9 1017.7 - 0.0 - - - - - - -
23/11:30am 11.4 SW 6 8 1017.8 - 0.0 - - - - - - -
23/11:00am 11.4 W 5 10 1018.1 - 0.0 - - - - - - -
23/10:30am 10.7 WNW 5 7 1018.3 - 0.0 - - - - - - -
23/10:00am 10.6 WNW 5 7 1018.4 - 0.0 - - - - - - -

Other Formats:

Comma delimited format used in spreadsheet applications
http://www.bom.gov.au/fwo/IDT60701/IDT60701.94842.axf

JavaScript Object Notation format (JSON) in row-major order
http://www.bom.gov.au/fwo/IDT60701/IDT60701.94842.json